Time;durP1;ratioP1;P1;durP2;ratioP2;P2;SDS_P1;SDS_P2;PMS_P1;PMS_P2;Temp;Humidity;BMP_temperature;BMP_pressure;BME280_temperature;BME280_humidity;BME280_pressure;Samples;Min_cycle;Max_cycle;Signal;HPM_P1;HPM_P2
2022/03/01 00:02:17;;;;;;;12.27;5.20;;;;;;;;;;5033651;28;20146;-67
2022/03/01 00:04:43;;;;;;;11.30;5.55;;;;;;;;;;5034805;28;20052;-67
2022/03/01 00:07:09;;;;;;;14.55;6.28;;;;;;;;;;5038536;28;20087;-67
2022/03/01 00:09:35;;;;;;;12.90;6.45;;;;;;;;;;5036153;28;20037;-67
2022/03/01 00:12:02;;;;;;;11.07;6.38;;;;;;;;;;5040166;28;20037;-67
2022/03/01 00:14:27;;;;;;;9.77;5.07;;;;;;;;;;5043603;28;20032;-67
2022/03/01 00:16:54;;;;;;;12.20;5.78;;;;;;;;;;5033156;28;20025;-67
2022/03/01 00:19:20;;;;;;;14.05;6.15;;;;;;;;;;5036959;28;20087;-67
2022/03/01 00:21:47;;;;;;;16.55;6.18;;;;;;;;;;5038294;28;20284;-67
2022/03/01 00:24:12;;;;;;;11.43;6.60;;;;;;;;;;5033301;28;20049;-67
2022/03/01 00:26:38;;;;;;;13.95;6.05;;;;;;;;;;5033870;28;20382;-67
2022/03/01 00:29:04;;;;;;;9.25;5.45;;;;;;;;;;5033266;28;20569;-67
2022/03/01 00:31:30;;;;;;;7.35;4.72;;;;;;;;;;5037738;28;20056;-67
2022/03/01 00:33:56;;;;;;;13.40;6.63;;;;;;;;;;5035429;28;20025;-67
2022/03/01 00:36:22;;;;;;;11.75;5.30;;;;;;;;;;5034201;28;20405;-67
2022/03/01 00:38:47;;;;;;;17.38;6.05;;;;;;;;;;5040042;28;20076;-66
2022/03/01 00:41:13;;;;;;;5.85;5.00;;;;;;;;;;5033440;28;20521;-66
2022/03/01 00:43:39;;;;;;;14.95;5.70;;;;;;;;;;5033877;28;20503;-67
2022/03/01 00:46:04;;;;;;;10.63;4.88;;;;;;;;;;5038383;28;20029;-67
2022/03/01 00:48:30;;;;;;;10.20;5.18;;;;;;;;;;5035921;28;20056;-67
2022/03/01 00:50:56;;;;;;;11.85;4.88;;;;;;;;;;5037030;28;20080;-67
2022/03/01 00:53:21;;;;;;;11.98;4.90;;;;;;;;;;5034666;28;20087;-67
2022/03/01 00:55:47;;;;;;;10.93;5.05;;;;;;;;;;5036418;28;20033;-67
2022/03/01 00:58:14;;;;;;;8.00;5.10;;;;;;;;;;5037807;28;20094;-67
2022/03/01 01:00:40;;;;;;;7.82;5.13;;;;;;;;;;5037167;28;20026;-67
2022/03/01 01:03:06;;;;;;;12.55;5.30;;;;;;;;;;5038328;28;20458;-67
2022/03/01 01:05:32;;;;;;;7.75;4.45;;;;;;;;;;5035959;28;20108;-67
2022/03/01 01:07:58;;;;;;;10.80;4.75;;;;;;;;;;5036534;28;20172;-67
2022/03/01 01:10:24;;;;;;;7.15;5.18;;;;;;;;;;5036697;28;20037;-67
2022/03/01 01:12:50;;;;;;;11.50;4.88;;;;;;;;;;5039366;28;20477;-67
2022/03/01 01:15:18;;;;;;;12.63;5.28;;;;;;;;;;5035561;28;20112;-66
2022/03/01 01:17:44;;;;;;;13.52;5.32;;;;;;;;;;5033489;28;20471;-67
2022/03/01 01:20:11;;;;;;;12.52;4.90;;;;;;;;;;5036324;28;20029;-66
2022/03/01 01:22:39;;;;;;;11.25;5.70;;;;;;;;;;5032205;28;20086;-66
2022/03/01 01:25:07;;;;;;;9.30;5.40;;;;;;;;;;5033234;28;20124;-66
2022/03/01 01:27:33;;;;;;;10.93;5.10;;;;;;;;;;5038671;28;20037;-67
2022/03/01 01:29:59;;;;;;;9.38;4.70;;;;;;;;;;5037481;28;20112;-66
2022/03/01 01:32:25;;;;;;;9.73;4.85;;;;;;;;;;5038321;28;20431;-66
2022/03/01 01:34:52;;;;;;;10.20;5.28;;;;;;;;;;5031170;28;20052;-66
2022/03/01 01:37:19;;;;;;;13.00;6.30;;;;;;;;;;5033993;28;20123;-66
2022/03/01 01:39:44;;;;;;;16.45;6.00;;;;;;;;;;5032704;28;20471;-67
2022/03/01 01:42:10;;;;;;;13.02;6.03;;;;;;;;;;5035811;28;20037;-66
2022/03/01 01:44:36;;;;;;;11.77;5.13;;;;;;;;;;5033832;28;20383;-66
2022/03/01 01:47:02;;;;;;;7.47;4.80;;;;;;;;;;5035006;28;20029;-66
2022/03/01 01:49:28;;;;;;;9.63;5.25;;;;;;;;;;5036229;28;20037;-67
2022/03/01 01:51:54;;;;;;;10.68;4.88;;;;;;;;;;5040591;28;20029;-66
2022/03/01 01:54:20;;;;;;;14.30;5.25;;;;;;;;;;5034723;28;20021;-66
2022/03/01 01:56:46;;;;;;;9.27;4.80;;;;;;;;;;5036493;28;20846;-66
2022/03/01 01:59:12;;;;;;;8.80;4.85;;;;;;;;;;5038514;28;20033;-66
2022/03/01 02:01:38;;;;;;;7.53;5.10;;;;;;;;;;5038549;28;20543;-66
2022/03/01 02:04:03;;;;;;;7.38;4.93;;;;;;;;;;5031645;28;20112;-66
2022/03/01 02:06:29;;;;;;;10.57;4.90;;;;;;;;;;5041881;28;20045;-66
2022/03/01 02:08:54;;;;;;;13.13;5.65;;;;;;;;;;5035858;28;20061;-67
2022/03/01 02:11:20;;;;;;;12.32;5.55;;;;;;;;;;5038892;28;20090;-66
2022/03/01 02:13:46;;;;;;;11.95;5.03;;;;;;;;;;5032641;28;20038;-67
2022/03/01 02:16:12;;;;;;;9.15;4.85;;;;;;;;;;5031570;28;20036;-66
2022/03/01 02:18:38;;;;;;;8.95;5.00;;;;;;;;;;5036532;28;20519;-66
2022/03/01 02:21:04;;;;;;;11.23;5.00;;;;;;;;;;5039794;28;20078;-66
2022/03/01 02:23:30;;;;;;;9.95;4.88;;;;;;;;;;5031110;28;20033;-66
2022/03/01 02:25:56;;;;;;;7.53;4.47;;;;;;;;;;5036957;28;20119;-66
2022/03/01 02:28:21;;;;;;;8.43;4.22;;;;;;;;;;5031079;28;20038;-66
2022/03/01 02:30:47;;;;;;;9.30;4.28;;;;;;;;;;5032347;28;20560;-66
2022/03/01 02:33:13;;;;;;;6.13;3.72;;;;;;;;;;5033893;28;20040;-65
2022/03/01 02:35:39;;;;;;;9.38;4.03;;;;;;;;;;5037695;28;20027;-66
2022/03/01 02:38:05;;;;;;;8.05;3.83;;;;;;;;;;5035442;28;20108;-66
2022/03/01 02:40:30;;;;;;;5.40;4.40;;;;;;;;;;5040068;28;20446;-66
2022/03/01 02:42:56;;;;;;;7.63;4.20;;;;;;;;;;5029441;28;20045;-66
2022/03/01 02:45:23;;;;;;;7.18;3.90;;;;;;;;;;5035258;28;20673;-66
2022/03/01 02:47:49;;;;;;;6.95;3.90;;;;;;;;;;5036653;28;20124;-66
2022/03/01 02:50:16;;;;;;;9.63;4.05;;;;;;;;;;5036869;28;20036;-66
2022/03/01 02:52:42;;;;;;;3.97;3.58;;;;;;;;;;5032877;28;20064;-66
2022/03/01 02:55:09;;;;;;;8.10;3.90;;;;;;;;;;5032118;28;20045;-66
2022/03/01 02:57:35;;;;;;;6.47;3.80;;;;;;;;;;5039113;28;20132;-67
2022/03/01 03:00:02;;;;;;;5.53;4.05;;;;;;;;;;5035165;28;20104;-66
2022/03/01 03:02:33;;;;;;;7.72;3.95;;;;;;;;;;5034858;28;21053;-65
2022/03/01 03:04:58;;;;;;;4.75;3.35;;;;;;;;;;5034018;28;20041;-66
2022/03/01 03:07:24;;;;;;;4.82;3.75;;;;;;;;;;5030988;28;20029;-66
2022/03/01 03:09:50;;;;;;;9.98;3.75;;;;;;;;;;5031547;28;20040;-66
2022/03/01 03:12:17;;;;;;;7.70;4.07;;;;;;;;;;5036390;28;20041;-66
2022/03/01 03:14:42;;;;;;;6.35;3.92;;;;;;;;;;5033307;28;20038;-66
2022/03/01 03:17:08;;;;;;;10.10;4.43;;;;;;;;;;5030352;28;20112;-66
2022/03/01 03:19:33;;;;;;;10.15;4.07;;;;;;;;;;5031733;28;20446;-66
2022/03/01 03:22:00;;;;;;;8.25;4.13;;;;;;;;;;5043904;28;20557;-65
2022/03/01 03:24:26;;;;;;;11.63;4.47;;;;;;;;;;5032812;28;20403;-66
2022/03/01 03:26:51;;;;;;;9.57;4.07;;;;;;;;;;5038396;28;20033;-66
2022/03/01 03:29:18;;;;;;;8.30;3.67;;;;;;;;;;5030653;28;20478;-66
2022/03/01 03:31:44;;;;;;;6.82;3.90;;;;;;;;;;5037287;28;20037;-66
2022/03/01 03:34:11;;;;;;;8.25;3.88;;;;;;;;;;5031299;28;20099;-66
2022/03/01 03:36:38;;;;;;;12.82;4.57;;;;;;;;;;5031262;28;20033;-66
2022/03/01 03:39:06;;;;;;;12.25;4.10;;;;;;;;;;5037957;28;20029;-66
2022/03/01 03:41:32;;;;;;;5.75;3.75;;;;;;;;;;5035842;28;20462;-66
2022/03/01 03:43:59;;;;;;;9.82;3.70;;;;;;;;;;5033247;28;20037;-65
2022/03/01 03:46:25;;;;;;;10.65;3.65;;;;;;;;;;5036069;28;20033;-66
2022/03/01 03:48:52;;;;;;;8.00;4.43;;;;;;;;;;5046686;28;20037;-66
2022/03/01 03:51:19;;;;;;;7.93;3.53;;;;;;;;;;5042275;28;20037;-65
2022/03/01 03:53:45;;;;;;;7.97;3.20;;;;;;;;;;5040455;28;20033;-66
2022/03/01 03:56:10;;;;;;;6.80;3.63;;;;;;;;;;5044353;28;20040;-66
2022/03/01 03:58:36;;;;;;;7.47;3.80;;;;;;;;;;5036584;28;20096;-65
2022/03/01 04:01:03;;;;;;;10.60;3.63;;;;;;;;;;5036870;28;20398;-66
2022/03/01 04:03:29;;;;;;;5.40;3.17;;;;;;;;;;5036126;28;20455;-66
2022/03/01 04:05:54;;;;;;;11.93;3.92;;;;;;;;;;5042564;28;20056;-65
2022/03/01 04:08:20;;;;;;;9.10;3.70;;;;;;;;;;5035369;28;20069;-66
2022/03/01 04:10:46;;;;;;;4.97;3.00;;;;;;;;;;5035007;28;20025;-66
2022/03/01 04:13:12;;;;;;;13.57;3.47;;;;;;;;;;5031386;28;20033;-66
2022/03/01 04:15:40;;;;;;;9.63;3.58;;;;;;;;;;5045276;28;20029;-69
2022/03/01 04:18:06;;;;;;;7.10;2.60;;;;;;;;;;5036619;28;20076;-68
2022/03/01 04:20:32;;;;;;;10.63;3.17;;;;;;;;;;5035918;28;20049;-65
2022/03/01 04:22:58;;;;;;;8.43;3.08;;;;;;;;;;5035547;28;20036;-65
2022/03/01 04:25:24;;;;;;;11.15;2.70;;;;;;;;;;5038160;28;20402;-68
2022/03/01 04:27:50;;;;;;;7.57;2.80;;;;;;;;;;5040638;28;20038;-69
2022/03/01 04:30:17;;;;;;;4.75;2.72;;;;;;;;;;5034786;28;20033;-69
2022/03/01 04:32:45;;;;;;;11.98;2.63;;;;;;;;;;5038938;28;20086;-68
2022/03/01 04:35:11;;;;;;;10.18;2.63;;;;;;;;;;5040731;28;20032;-66
2022/03/01 04:37:40;;;;;;;7.45;2.83;;;;;;;;;;5041522;28;20021;-68
2022/03/01 04:40:07;;;;;;;9.25;2.53;;;;;;;;;;5038101;28;20029;-66
2022/03/01 04:42:33;;;;;;;8.20;2.45;;;;;;;;;;5048547;28;20104;-65
2022/03/01 04:44:59;;;;;;;6.88;2.92;;;;;;;;;;5039479;28;20561;-66
2022/03/01 04:47:25;;;;;;;8.00;2.80;;;;;;;;;;5043400;28;20062;-66
2022/03/01 04:49:51;;;;;;;12.43;2.65;;;;;;;;;;5036638;28;20025;-66
2022/03/01 04:52:17;;;;;;;13.90;4.05;;;;;;;;;;5033625;28;20034;-66
2022/03/01 04:54:43;;;;;;;9.45;2.70;;;;;;;;;;5040906;28;20030;-66
2022/03/01 04:57:09;;;;;;;9.43;2.72;;;;;;;;;;5037180;28;20082;-66
2022/03/01 04:59:35;;;;;;;7.30;2.90;;;;;;;;;;5032595;28;20111;-66
2022/03/01 05:02:02;;;;;;;8.25;2.70;;;;;;;;;;5036950;28;20052;-68
2022/03/01 05:04:28;;;;;;;7.63;2.17;;;;;;;;;;5034634;28;20052;-67
2022/03/01 05:06:54;;;;;;;9.85;2.78;;;;;;;;;;5038477;28;20117;-66
2022/03/01 05:09:22;;;;;;;8.90;2.58;;;;;;;;;;5034302;28;20064;-67
2022/03/01 05:11:50;;;;;;;8.05;2.88;;;;;;;;;;5039271;28;20029;-66
2022/03/01 05:14:16;;;;;;;11.18;2.95;;;;;;;;;;5036907;28;20040;-67
2022/03/01 05:16:42;;;;;;;7.80;2.78;;;;;;;;;;5035966;28;20048;-66
2022/03/01 05:19:09;;;;;;;8.45;2.60;;;;;;;;;;5045096;28;20029;-66
2022/03/01 05:21:36;;;;;;;6.78;2.40;;;;;;;;;;5037491;28;20103;-66
2022/03/01 05:24:02;;;;;;;4.18;2.20;;;;;;;;;;5037258;28;20108;-66
2022/03/01 05:26:28;;;;;;;4.13;2.30;;;;;;;;;;5038959;28;20458;-66
2022/03/01 05:28:54;;;;;;;4.82;2.38;;;;;;;;;;5036138;28;20060;-66
2022/03/01 05:31:20;;;;;;;6.60;2.60;;;;;;;;;;5033485;28;20036;-67
2022/03/01 05:33:47;;;;;;;10.20;2.47;;;;;;;;;;5043453;28;20025;-66
2022/03/01 05:36:14;;;;;;;4.00;2.38;;;;;;;;;;5037183;28;20029;-66
2022/03/01 05:38:40;;;;;;;7.47;2.58;;;;;;;;;;5033838;28;20029;-68
2022/03/01 05:41:06;;;;;;;7.22;2.78;;;;;;;;;;5032934;28;20056;-66
2022/03/01 05:43:32;;;;;;;5.00;2.50;;;;;;;;;;5033496;28;20145;-66
2022/03/01 05:45:58;;;;;;;4.38;2.47;;;;;;;;;;5032502;28;20042;-65
2022/03/01 05:48:24;;;;;;;10.63;2.58;;;;;;;;;;5037704;28;20516;-66
2022/03/01 05:50:49;;;;;;;6.45;2.67;;;;;;;;;;5035476;28;20041;-66
2022/03/01 05:53:15;;;;;;;15.63;2.95;;;;;;;;;;5040043;28;20068;-66
2022/03/01 05:55:41;;;;;;;8.57;3.03;;;;;;;;;;5035623;28;20091;-66
2022/03/01 05:58:07;;;;;;;4.10;2.75;;;;;;;;;;5031284;28;20036;-66
2022/03/01 06:00:33;;;;;;;4.65;2.47;;;;;;;;;;5042719;28;20505;-65
2022/03/01 06:02:58;;;;;;;9.57;2.75;;;;;;;;;;5035048;28;20103;-66
2022/03/01 06:05:25;;;;;;;6.78;2.78;;;;;;;;;;5036863;28;20485;-66
2022/03/01 06:07:50;;;;;;;6.07;3.42;;;;;;;;;;5038479;28;20029;-67
2022/03/01 06:10:16;;;;;;;4.07;2.70;;;;;;;;;;5036190;28;20032;-66
2022/03/01 06:12:42;;;;;;;5.22;2.60;;;;;;;;;;5032832;28;20029;-67
2022/03/01 06:15:09;;;;;;;7.38;3.00;;;;;;;;;;5031705;28;20029;-66
2022/03/01 06:17:35;;;;;;;7.45;2.85;;;;;;;;;;5041558;28;20040;-66
2022/03/01 06:20:01;;;;;;;7.05;2.92;;;;;;;;;;5035288;28;20560;-66
2022/03/01 06:22:29;;;;;;;8.85;2.65;;;;;;;;;;5033595;28;20048;-66
2022/03/01 06:24:55;;;;;;;4.43;2.50;;;;;;;;;;5031205;28;20057;-66
2022/03/01 06:27:22;;;;;;;9.90;3.13;;;;;;;;;;5034918;28;20033;-66
2022/03/01 06:29:48;;;;;;;7.57;2.78;;;;;;;;;;5033974;28;20029;-66
2022/03/01 06:32:14;;;;;;;9.57;3.63;;;;;;;;;;5035279;28;20027;-68
2022/03/01 06:34:40;;;;;;;10.73;3.50;;;;;;;;;;5035517;28;20112;-66
2022/03/01 06:37:12;;;;;;;11.32;3.40;;;;;;;;;;5028106;28;20045;-67
2022/03/01 06:39:39;;;;;;;;;;;;;;;;;;5039790;28;20544;-66
2022/03/01 06:42:04;;;;;;;8.32;5.25;;;;;;;;;;5036250;28;19921;-65
2022/03/01 06:44:30;;;;;;;13.95;6.57;;;;;;;;;;5033781;28;20041;-66
2022/03/01 06:46:56;;;;;;;13.45;6.25;;;;;;;;;;5037153;28;20025;-66
2022/03/01 06:49:21;;;;;;;14.48;8.10;;;;;;;;;;5031902;28;20123;-66
2022/03/01 06:51:47;;;;;;;17.20;8.55;;;;;;;;;;5032161;28;20121;-66
2022/03/01 06:54:13;;;;;;;19.13;8.70;;;;;;;;;;5039071;28;20903;-66
2022/03/01 06:56:38;;;;;;;14.95;10.00;;;;;;;;;;5031546;28;20021;-67
2022/03/01 06:59:04;;;;;;;20.27;10.50;;;;;;;;;;5034996;28;20029;-66
2022/03/01 07:01:30;;;;;;;17.55;10.00;;;;;;;;;;5038621;28;20033;-66
2022/03/01 07:03:56;;;;;;;14.57;10.27;;;;;;;;;;5034817;28;20053;-66
2022/03/01 07:06:22;;;;;;;18.23;10.35;;;;;;;;;;5033909;28;20511;-66
2022/03/01 07:08:49;;;;;;;14.20;10.25;;;;;;;;;;5036200;28;20037;-67
2022/03/01 07:11:15;;;;;;;18.63;10.50;;;;;;;;;;5031689;28;20033;-67
2022/03/01 07:13:40;;;;;;;21.33;10.88;;;;;;;;;;5030728;28;20390;-67
2022/03/01 07:16:06;;;;;;;17.98;11.05;;;;;;;;;;5036924;28;20032;-67
2022/03/01 07:18:32;;;;;;;15.45;10.68;;;;;;;;;;5033619;28;20525;-67
2022/03/01 07:20:58;;;;;;;16.42;11.77;;;;;;;;;;5038192;28;20029;-67
2022/03/01 07:23:24;;;;;;;19.33;11.90;;;;;;;;;;5040655;28;20033;-66
2022/03/01 07:25:50;;;;;;;24.15;11.50;;;;;;;;;;5041674;28;20136;-66
2022/03/01 07:28:16;;;;;;;33.90;12.50;;;;;;;;;;5037529;28;20486;-66
2022/03/01 07:30:41;;;;;;;19.83;10.15;;;;;;;;;;5041400;28;20464;-67
2022/03/01 07:33:07;;;;;;;19.83;10.93;;;;;;;;;;5039864;28;20108;-68
2022/03/01 07:35:33;;;;;;;18.23;10.40;;;;;;;;;;5035656;28;20030;-68
2022/03/01 07:37:59;;;;;;;17.17;10.60;;;;;;;;;;5037354;28;20425;-68
2022/03/01 07:40:26;;;;;;;19.95;10.07;;;;;;;;;;5037881;28;20056;-68
2022/03/01 07:42:52;;;;;;;23.83;11.45;;;;;;;;;;5038088;28;20461;-68
2022/03/01 07:45:19;;;;;;;17.58;10.25;;;;;;;;;;5040879;28;20053;-68
2022/03/01 07:47:45;;;;;;;17.67;10.40;;;;;;;;;;5038269;28;20483;-68
2022/03/01 07:50:11;;;;;;;17.48;10.05;;;;;;;;;;5035892;28;20140;-68
2022/03/01 07:52:37;;;;;;;17.20;9.23;;;;;;;;;;5036778;28;20124;-69
2022/03/01 07:55:04;;;;;;;17.90;9.23;;;;;;;;;;5033366;28;20059;-68
2022/03/01 07:57:30;;;;;;;14.52;8.95;;;;;;;;;;5040822;28;20485;-69
2022/03/01 07:59:56;;;;;;;16.50;8.63;;;;;;;;;;5037855;28;20045;-68
2022/03/01 08:02:22;;;;;;;18.27;8.77;;;;;;;;;;5042781;28;20441;-68
2022/03/01 08:04:48;;;;;;;14.60;8.40;;;;;;;;;;5034037;28;20031;-68
2022/03/01 08:07:13;;;;;;;13.80;7.60;;;;;;;;;;5037297;28;20033;-66
2022/03/01 08:09:40;;;;;;;13.40;7.43;;;;;;;;;;5036163;28;20500;-67
2022/03/01 08:12:07;;;;;;;17.70;8.07;;;;;;;;;;5040278;28;20022;-68
2022/03/01 08:14:34;;;;;;;19.45;8.05;;;;;;;;;;5039729;28;20040;-68
2022/03/01 08:17:01;;;;;;;14.55;8.38;;;;;;;;;;5037517;28;20116;-68
2022/03/01 08:19:27;;;;;;;11.82;7.75;;;;;;;;;;5032890;28;20088;-68
2022/03/01 08:21:53;;;;;;;13.88;7.45;;;;;;;;;;5035484;28;20407;-63
2022/03/01 08:24:19;;;;;;;14.25;7.45;;;;;;;;;;5039245;28;20555;-67
2022/03/01 08:26:45;;;;;;;16.15;7.97;;;;;;;;;;5036367;28;20061;-67
2022/03/01 08:29:10;;;;;;;22.30;7.22;;;;;;;;;;5038385;28;20029;-67
2022/03/01 08:31:39;;;;;;;14.60;7.55;;;;;;;;;;5045616;28;20032;-67
2022/03/01 08:34:05;;;;;;;23.05;7.30;;;;;;;;;;5038901;28;20025;-67
2022/03/01 08:36:31;;;;;;;15.13;7.63;;;;;;;;;;5033511;28;20021;-68
2022/03/01 08:38:57;;;;;;;11.07;6.72;;;;;;;;;;5039904;28;20075;-67
2022/03/01 08:41:24;;;;;;;13.55;6.95;;;;;;;;;;5038307;28;20454;-68
2022/03/01 08:43:50;;;;;;;18.88;6.75;;;;;;;;;;5037066;28;20045;-67
2022/03/01 08:46:16;;;;;;;12.30;6.53;;;;;;;;;;5040131;28;20090;-67
2022/03/01 08:48:44;;;;;;;16.40;6.65;;;;;;;;;;5034755;28;20057;-67
2022/03/01 08:51:11;;;;;;;17.52;6.28;;;;;;;;;;5033431;28;20032;-67
2022/03/01 08:53:38;;;;;;;12.57;6.55;;;;;;;;;;5037293;28;20033;-67
2022/03/01 08:56:04;;;;;;;10.85;6.38;;;;;;;;;;5039743;28;20025;-67
2022/03/01 08:58:30;;;;;;;15.52;6.32;;;;;;;;;;5033868;28;20061;-67
2022/03/01 09:00:55;;;;;;;12.20;7.15;;;;;;;;;;5037226;28;20454;-67
2022/03/01 09:03:23;;;;;;;12.57;6.28;;;;;;;;;;5043905;28;20035;-67
2022/03/01 09:05:49;;;;;;;18.00;6.70;;;;;;;;;;5037045;28;20096;-67
2022/03/01 09:08:15;;;;;;;19.80;6.55;;;;;;;;;;5037805;28;20028;-67
2022/03/01 09:10:41;;;;;;;12.70;5.85;;;;;;;;;;5036679;28;20394;-67
2022/03/01 09:13:07;;;;;;;15.00;6.32;;;;;;;;;;5031724;28;20473;-67
2022/03/01 09:15:33;;;;;;;11.82;6.13;;;;;;;;;;5037208;28;20075;-66
2022/03/01 09:18:00;;;;;;;11.77;6.15;;;;;;;;;;5034680;28;20123;-67
2022/03/01 09:20:27;;;;;;;17.33;6.82;;;;;;;;;;5032019;28;20037;-67
2022/03/01 09:22:53;;;;;;;11.68;6.05;;;;;;;;;;5035629;28;20037;-67
2022/03/01 09:25:19;;;;;;;12.38;5.70;;;;;;;;;;5037927;28;20490;-68
2022/03/01 09:27:46;;;;;;;10.95;6.32;;;;;;;;;;5041832;28;20029;-67
2022/03/01 09:30:13;;;;;;;18.23;7.22;;;;;;;;;;5036669;28;20030;-68
2022/03/01 09:32:40;;;;;;;11.93;6.97;;;;;;;;;;5038132;28;20478;-67
2022/03/01 09:35:07;;;;;;;11.70;6.90;;;;;;;;;;5035625;28;20480;-67
2022/03/01 09:37:33;;;;;;;12.85;7.07;;;;;;;;;;5033708;28;20363;-67
2022/03/01 09:40:04;;;;;;;13.63;6.63;;;;;;;;;;5035425;28;20033;-67
2022/03/01 09:42:31;;;;;;;16.40;7.70;;;;;;;;;;5036702;28;20478;-67
2022/03/01 09:44:58;;;;;;;15.32;7.68;;;;;;;;;;5037961;28;20091;-67
2022/03/01 09:47:25;;;;;;;13.45;6.78;;;;;;;;;;5036719;28;20407;-67
2022/03/01 09:49:52;;;;;;;13.07;7.00;;;;;;;;;;5034319;28;20029;-67
2022/03/01 09:52:20;;;;;;;16.10;7.60;;;;;;;;;;5033206;28;20418;-67
2022/03/01 09:54:49;;;;;;;15.02;7.18;;;;;;;;;;5036609;28;20033;-67
2022/03/01 09:57:16;;;;;;;15.63;6.82;;;;;;;;;;5034000;28;20029;-67
2022/03/01 09:59:42;;;;;;;10.45;6.63;;;;;;;;;;5036848;28;20033;-67
2022/03/01 10:02:09;;;;;;;17.10;6.60;;;;;;;;;;5039208;28;20033;-67
2022/03/01 10:04:57;;;;;;;12.30;6.45;;;;;;;;;;5033782;28;20082;-67
2022/03/01 10:07:27;;;;;;;23.05;7.18;;;;;;;;;;5033671;28;20067;-67
2022/03/01 10:09:54;;;;;;;14.95;6.70;;;;;;;;;;5038482;28;20037;-67
2022/03/01 10:12:27;;;;;;;17.75;7.15;;;;;;;;;;5033472;28;20394;-67
2022/03/01 10:14:59;;;;;;;13.25;5.85;;;;;;;;;;5032540;28;20104;-67
2022/03/01 10:17:43;;;;;;;15.82;7.07;;;;;;;;;;5030700;28;20069;-68
2022/03/01 10:20:14;;;;;;;14.10;6.70;;;;;;;;;;5037539;28;20037;-68
2022/03/01 10:22:53;;;;;;;8.77;5.70;;;;;;;;;;5033433;28;20073;-67
2022/03/01 10:25:21;;;;;;;12.70;6.25;;;;;;;;;;5034800;28;20742;-67
2022/03/01 10:27:49;;;;;;;12.82;6.47;;;;;;;;;;5033055;28;20035;-68
2022/03/01 10:30:27;;;;;;;9.50;5.85;;;;;;;;;;5036242;28;20026;-67
2022/03/01 10:33:22;;;;;;;10.13;6.38;;;;;;;;;;5042828;28;20036;-67
2022/03/01 10:35:57;;;;;;;8.95;6.00;;;;;;;;;;5037790;28;20045;-67
2022/03/01 10:38:24;;;;;;;15.70;6.50;;;;;;;;;;5041225;28;20028;-67
2022/03/01 10:40:57;;;;;;;11.40;6.32;;;;;;;;;;5041575;28;20065;-67
2022/03/01 10:43:25;;;;;;;10.50;5.90;;;;;;;;;;5035628;28;20029;-67
2022/03/01 10:45:51;;;;;;;13.52;6.15;;;;;;;;;;5032410;28;20078;-66
2022/03/01 10:48:34;;;;;;;17.17;6.00;;;;;;;;;;5031171;28;20030;-67
2022/03/01 10:51:02;;;;;;;;;;;;;;;;;;5034430;28;20036;-67
2022/03/01 10:53:33;;;;;;;16.63;6.38;;;;;;;;;;5034424;28;19921;-67
2022/03/01 10:56:04;;;;;;;12.40;5.97;;;;;;;;;;5034544;28;20029;-66
2022/03/01 10:58:30;;;;;;;19.05;5.50;;;;;;;;;;5033988;28;20124;-67
2022/03/01 11:00:57;;;;;;;11.95;6.00;;;;;;;;;;5030871;28;20900;-67
2022/03/01 11:03:23;;;;;;;13.63;5.60;;;;;;;;;;5039034;28;20112;-67
2022/03/01 11:05:54;;;;;;;9.48;5.53;;;;;;;;;;5035277;28;20033;-67
2022/03/01 11:08:22;;;;;;;10.73;6.00;;;;;;;;;;5033369;28;20048;-67
2022/03/01 11:10:49;;;;;;;12.55;5.75;;;;;;;;;;5031764;28;20087;-66
2022/03/01 11:13:19;;;;;;;9.18;4.88;;;;;;;;;;5039689;28;20028;-67
2022/03/01 11:15:55;;;;;;;9.13;5.43;;;;;;;;;;5034342;28;20441;-67
2022/03/01 11:18:50;;;;;;;10.35;5.30;;;;;;;;;;5041101;28;20052;-67
2022/03/01 11:21:17;;;;;;;12.23;5.82;;;;;;;;;;5033079;28;20025;-66
2022/03/01 11:23:43;;;;;;;9.25;5.47;;;;;;;;;;5034988;28;20060;-61
2022/03/01 11:26:12;;;;;;;13.15;5.20;;;;;;;;;;5036447;28;20029;-66
2022/03/01 11:28:40;;;;;;;13.95;5.72;;;;;;;;;;5030758;28;20045;-66
2022/03/01 11:31:25;;;;;;;12.25;5.85;;;;;;;;;;5031149;28;20025;-67
2022/03/01 11:33:55;;;;;;;9.57;5.25;;;;;;;;;;5034836;28;20044;-67
2022/03/01 11:36:22;;;;;;;10.52;5.50;;;;;;;;;;5031644;28;20084;-66
2022/03/01 11:38:48;;;;;;;9.52;4.80;;;;;;;;;;5035828;28;20025;-66
2022/03/01 11:41:20;;;;;;;12.05;5.38;;;;;;;;;;5030805;28;20082;-65
2022/03/01 11:43:57;;;;;;;10.75;5.22;;;;;;;;;;5037610;28;20040;-66
2022/03/01 11:46:23;;;;;;;11.30;4.90;;;;;;;;;;5033862;28;20033;-66
2022/03/01 11:48:54;;;;;;;13.00;6.18;;;;;;;;;;5035690;28;20036;-67
2022/03/01 11:51:35;;;;;;;10.93;5.50;;;;;;;;;;5037495;28;20032;-66
2022/03/01 11:54:04;;;;;;;10.23;5.35;;;;;;;;;;5033365;28;20026;-67
2022/03/01 11:56:29;;;;;;;10.90;4.93;;;;;;;;;;5038824;28;20521;-66
2022/03/01 11:59:04;;;;;;;10.00;5.57;;;;;;;;;;5033418;28;20060;-66
2022/03/01 12:01:32;;;;;;;14.25;5.90;;;;;;;;;;5038916;28;20486;-66
2022/03/01 12:04:03;;;;;;;14.43;5.85;;;;;;;;;;5029150;28;20041;-66
2022/03/01 12:06:31;;;;;;;14.90;5.70;;;;;;;;;;5032893;28;20156;-66
2022/03/01 12:08:58;;;;;;;11.10;5.60;;;;;;;;;;5042364;28;20378;-67
2022/03/01 12:11:43;;;;;;;11.52;5.40;;;;;;;;;;5040027;28;20025;-66
2022/03/01 12:14:11;;;;;;;7.22;5.10;;;;;;;;;;5038110;28;20029;-67
2022/03/01 12:16:38;;;;;;;15.13;5.30;;;;;;;;;;5040512;28;20044;-66
2022/03/01 12:19:09;;;;;;;10.35;5.20;;;;;;;;;;5042185;28;20032;-66
2022/03/01 12:21:36;;;;;;;13.83;5.57;;;;;;;;;;5035020;28;20553;-66
2022/03/01 12:24:02;;;;;;;18.80;5.65;;;;;;;;;;5038612;28;20753;-67
2022/03/01 12:26:28;;;;;;;12.77;5.43;;;;;;;;;;5040444;28;20036;-66
2022/03/01 12:28:59;;;;;;;20.73;5.63;;;;;;;;;;5037184;28;20029;-67
2022/03/01 12:31:28;;;;;;;13.82;5.60;;;;;;;;;;5034021;28;20036;-66
2022/03/01 12:33:58;;;;;;;10.15;5.70;;;;;;;;;;5038561;28;20181;-65
2022/03/01 12:36:33;;;;;;;13.18;5.60;;;;;;;;;;5043204;28;20119;-66
2022/03/01 12:38:59;;;;;;;11.73;6.07;;;;;;;;;;5035153;28;20025;-66
2022/03/01 12:41:26;;;;;;;12.20;5.53;;;;;;;;;;5040375;28;20393;-66
2022/03/01 12:43:57;;;;;;;12.73;5.00;;;;;;;;;;5037893;28;20064;-66
2022/03/01 12:46:24;;;;;;;16.65;5.43;;;;;;;;;;5035268;28;20053;-66
2022/03/01 12:48:51;;;;;;;12.05;5.53;;;;;;;;;;5034107;28;20052;-66
2022/03/01 12:51:18;;;;;;;13.15;5.90;;;;;;;;;;5037047;28;20038;-66
2022/03/01 12:53:55;;;;;;;17.70;5.93;;;;;;;;;;5036180;28;20030;-66
2022/03/01 12:56:26;;;;;;;12.60;5.15;;;;;;;;;;5036504;28;20033;-66
2022/03/01 12:58:55;;;;;;;15.90;6.10;;;;;;;;;;5034329;28;20075;-66
2022/03/01 13:01:21;;;;;;;11.15;5.40;;;;;;;;;;5036028;28;20039;-66
2022/03/01 13:03:49;;;;;;;16.85;6.10;;;;;;;;;;5035128;28;20035;-66
2022/03/01 13:06:17;;;;;;;16.33;6.25;;;;;;;;;;5034554;28;20029;-67
2022/03/01 13:08:44;;;;;;;13.80;5.70;;;;;;;;;;5037481;28;20075;-67
2022/03/01 13:11:12;;;;;;;14.93;6.40;;;;;;;;;;5034797;28;20103;-66
2022/03/01 13:13:45;;;;;;;16.73;7.43;;;;;;;;;;5039278;28;20032;-67
2022/03/01 13:16:16;;;;;;;13.88;6.68;;;;;;;;;;5038799;28;20180;-66
2022/03/01 13:18:42;;;;;;;14.23;6.72;;;;;;;;;;5034466;28;20033;-67
2022/03/01 13:21:08;;;;;;;12.02;6.65;;;;;;;;;;5039777;28;20539;-67
2022/03/01 13:23:34;;;;;;;13.25;6.45;;;;;;;;;;5041502;28;20025;-66
2022/03/01 13:26:01;;;;;;;12.10;7.18;;;;;;;;;;5037920;28;20072;-66
2022/03/01 13:28:38;;;;;;;20.05;6.93;;;;;;;;;;5035608;28;20037;-66
2022/03/01 13:31:06;;;;;;;20.70;6.50;;;;;;;;;;5038821;28;20033;-66
2022/03/01 13:33:33;;;;;;;14.65;6.78;;;;;;;;;;5037258;28;20108;-67
2022/03/01 13:36:13;;;;;;;12.93;6.28;;;;;;;;;;5040540;28;20500;-66
2022/03/01 13:38:39;;;;;;;13.32;6.15;;;;;;;;;;5038024;28;20024;-66
2022/03/01 13:41:06;;;;;;;19.30;7.55;;;;;;;;;;5035334;28;20072;-66
2022/03/01 13:43:32;;;;;;;12.95;6.45;;;;;;;;;;5039797;28;20025;-67
2022/03/01 13:46:02;;;;;;;15.65;7.22;;;;;;;;;;5032358;28;20033;-67
2022/03/01 13:48:29;;;;;;;19.35;6.22;;;;;;;;;;5039703;28;20083;-67
2022/03/01 13:51:07;;;;;;;20.75;7.28;;;;;;;;;;5035074;28;20053;-67
2022/03/01 13:53:33;;;;;;;19.98;8.73;;;;;;;;;;5037211;28;20033;-66
2022/03/01 13:55:59;;;;;;;17.17;7.38;;;;;;;;;;5034378;28;20028;-67
2022/03/01 13:58:30;;;;;;;21.23;7.63;;;;;;;;;;5032995;28;20058;-67
2022/03/01 14:01:02;;;;;;;17.33;7.28;;;;;;;;;;5030441;28;20069;-67
2022/03/01 14:03:34;;;;;;;19.58;7.35;;;;;;;;;;5038877;28;20072;-67
2022/03/01 14:06:10;;;;;;;16.38;8.32;;;;;;;;;;5033435;28;20463;-67
2022/03/01 14:08:39;;;;;;;30.30;9.68;;;;;;;;;;5040465;28;20076;-66
2022/03/01 14:11:05;;;;;;;21.65;9.48;;;;;;;;;;5037563;28;20033;-67
2022/03/01 14:13:42;;;;;;;17.08;7.88;;;;;;;;;;5035737;28;20029;-67
2022/03/01 14:16:19;;;;;;;16.70;8.40;;;;;;;;;;5032590;28;20032;-67
2022/03/01 14:18:50;;;;;;;21.33;7.63;;;;;;;;;;5036538;28;20397;-67
2022/03/01 14:21:20;;;;;;;21.65;8.40;;;;;;;;;;5044562;28;20478;-66
2022/03/01 14:23:46;;;;;;;16.42;7.80;;;;;;;;;;5029738;28;20207;-67
2022/03/01 14:26:13;;;;;;;20.23;8.25;;;;;;;;;;5034282;28;20147;-67
2022/03/01 14:28:51;;;;;;;22.33;7.07;;;;;;;;;;5039513;28;20043;-67
2022/03/01 14:31:17;;;;;;;17.65;6.82;;;;;;;;;;5033240;28;20021;-67
2022/03/01 14:33:42;;;;;;;21.02;7.53;;;;;;;;;;5030448;28;20036;-67
2022/03/01 14:36:08;;;;;;;16.58;7.00;;;;;;;;;;5033443;28;20547;-68